createdAt,value
2018-08-08T00:01:09.193Z,91.00
2018-08-08T00:03:41.849Z,90.90
2018-08-08T00:06:12.660Z,91.00
2018-08-08T00:08:44.184Z,91.40
2018-08-08T00:11:15.999Z,91.20
2018-08-08T00:13:46.912Z,91.30
2018-08-08T00:16:17.404Z,91.50
2018-08-08T00:18:48.153Z,91.30
2018-08-08T00:21:19.597Z,91.30
2018-08-08T00:23:50.486Z,91.20
2018-08-08T00:26:21.228Z,91.00
2018-08-08T00:28:52.759Z,90.40
2018-08-08T00:36:55.359Z,91.20
2018-08-08T00:39:24.477Z,90.90
2018-08-08T00:41:53.471Z,90.50
2018-08-08T00:44:22.437Z,90.40
2018-08-08T00:46:51.388Z,90.50
2018-08-08T00:49:20.488Z,90.70
2018-08-08T00:51:49.393Z,90.80
2018-08-08T00:54:18.277Z,90.70
2018-08-08T00:56:47.418Z,91.00
2018-08-08T00:59:16.315Z,91.30
2018-08-08T01:01:45.226Z,91.30
2018-08-08T01:04:14.238Z,91.20
2018-08-08T01:06:43.182Z,91.00
2018-08-08T01:09:12.684Z,90.80
2018-08-08T01:11:48.868Z,91.10
2018-08-08T01:14:17.761Z,90.90
2018-08-08T01:16:46.595Z,90.90
2018-08-08T01:19:15.578Z,91.30
2018-08-08T01:21:44.614Z,91.90
2018-08-08T01:24:13.425Z,92.10
2018-08-08T01:26:42.932Z,91.90
2018-08-08T01:29:11.804Z,91.40
2018-08-08T01:31:42.304Z,91.00
2018-08-08T01:34:11.837Z,91.50
2018-08-08T01:36:41.375Z,91.70
2018-08-08T01:39:10.891Z,91.90
2018-08-08T01:41:44.083Z,92.10
2018-08-08T01:44:14.132Z,91.60
2018-08-08T01:46:44.043Z,91.10
2018-08-08T01:49:14.398Z,91.70
2018-08-08T01:51:44.196Z,91.30
2018-08-08T01:54:14.170Z,91.30
2018-08-08T01:56:44.029Z,91.50
2018-08-08T01:59:14.145Z,91.30
2018-08-08T02:01:44.529Z,91.70
2018-08-08T02:04:13.723Z,92.00
2018-08-08T02:06:44.445Z,92.20
2018-08-08T02:09:16.870Z,93.30
2018-08-08T02:11:48.424Z,94.10
2018-08-08T02:14:18.976Z,94.30
2018-08-08T02:16:50.147Z,93.70
2018-08-08T02:19:20.350Z,93.30
2018-08-08T02:21:53.577Z,93.90
2018-08-08T02:24:22.505Z,93.90
2018-08-08T02:26:52.777Z,93.30
2018-08-08T02:29:22.593Z,92.50
2018-08-08T02:31:52.929Z,92.10
2018-08-08T02:34:22.633Z,92.20
2018-08-08T02:36:53.261Z,92.30
2018-08-08T02:39:22.212Z,92.20
2018-08-08T02:41:52.898Z,92.90
2018-08-08T02:44:22.784Z,93.10
2018-08-08T02:46:55.096Z,92.90
2018-08-08T02:49:25.934Z,92.70
2018-08-08T02:51:56.270Z,92.00
2018-08-08T02:54:25.708Z,92.40
2018-08-08T02:56:55.648Z,91.80
2018-08-08T02:59:24.818Z,91.50
2018-08-08T03:01:53.769Z,90.90
2018-08-08T03:04:23.803Z,90.90
2018-08-08T03:06:54.265Z,90.70
2018-08-08T03:09:23.354Z,91.10
2018-08-08T03:11:53.735Z,90.80
2018-08-08T03:14:23.213Z,90.80
2018-08-08T03:16:54.510Z,90.70
2018-08-08T03:19:23.479Z,91.30
2018-08-08T03:21:59.660Z,91.40
2018-08-08T03:24:38.259Z,91.60
2018-08-08T03:27:16.357Z,91.60
2018-08-08T03:29:52.854Z,91.20
2018-08-08T03:32:32.400Z,91.20
2018-08-08T03:35:15.709Z,92.00
2018-08-08T03:37:54.276Z,91.60
2018-08-08T03:43:16.297Z,91.80
2018-08-08T03:45:56.029Z,91.60
2018-08-08T03:51:16.690Z,91.60
2018-08-08T04:01:42.117Z,92.30
2018-08-08T04:04:20.891Z,92.50
2018-08-08T04:06:57.368Z,92.10
2018-08-08T04:09:33.834Z,91.60
2018-08-08T04:14:56.248Z,91.40
2018-08-08T04:17:37.333Z,91.80
2018-08-08T04:23:01.740Z,91.20
2018-08-08T04:25:48.995Z,91.80
2018-08-08T04:28:29.989Z,92.40
2018-08-08T04:33:53.013Z,92.80
2018-08-08T04:36:34.333Z,92.30
2018-08-08T04:39:14.653Z,92.00
2018-08-08T04:41:51.842Z,92.50
2018-08-08T04:52:42.657Z,90.40
2018-08-08T04:55:25.374Z,91.00
2018-08-08T04:58:06.911Z,91.70
2018-08-08T05:00:44.603Z,91.30
2018-08-08T05:03:19.189Z,91.50
2018-08-08T05:05:57.285Z,91.30
2018-08-08T05:11:11.655Z,91.60
2018-08-08T05:13:46.821Z,91.00
2018-08-08T05:16:24.203Z,90.70
2018-08-08T05:19:04.633Z,90.20
2018-08-08T05:24:27.199Z,90.40
2018-08-08T05:27:05.751Z,90.50
2018-08-08T05:29:41.945Z,90.10
2018-08-08T05:32:19.362Z,90.10
2018-08-08T05:34:58.784Z,89.10
2018-08-08T05:37:34.124Z,89.90
2018-08-08T05:40:14.205Z,86.90
2018-08-08T05:42:54.047Z,84.10
2018-08-08T05:45:30.118Z,87.00
2018-08-08T05:48:08.834Z,86.20
2018-08-08T05:50:50.053Z,82.90
2018-08-08T05:53:24.699Z,84.20
2018-08-08T05:56:01.164Z,83.70
2018-08-08T05:58:36.867Z,82.70
2018-08-08T06:01:19.762Z,84.90
2018-08-08T06:04:00.618Z,81.90
2018-08-08T06:06:37.117Z,83.10
2018-08-08T06:09:18.183Z,83.10
2018-08-08T06:11:58.744Z,82.80
2018-08-08T06:14:37.972Z,82.10
2018-08-08T06:17:18.749Z,82.60
2018-08-08T06:19:58.915Z,82.80
2018-08-08T06:22:36.808Z,83.10
2018-08-08T06:25:12.942Z,80.60
2018-08-08T06:27:48.169Z,81.00
2018-08-08T06:30:32.299Z,83.20
2018-08-08T06:33:09.432Z,82.10
2018-08-08T06:35:42.841Z,81.70
2018-08-08T06:38:19.304Z,81.30
2018-08-08T06:41:02.245Z,82.00
2018-08-08T06:43:44.597Z,84.70
2018-08-08T06:46:22.421Z,81.50
2018-08-08T06:48:56.603Z,81.60
2018-08-08T06:51:34.731Z,82.00
2018-08-08T06:54:10.371Z,82.00
2018-08-08T06:56:49.430Z,81.80
2018-08-08T06:59:24.428Z,80.80
2018-08-08T07:01:57.331Z,79.20
2018-08-08T07:04:32.837Z,80.70
2018-08-08T07:07:11.024Z,82.50
2018-08-08T07:12:31.831Z,82.30
2018-08-08T07:15:09.008Z,80.30
2018-08-08T07:17:49.391Z,80.20
2018-08-08T07:20:28.411Z,80.70
2018-08-08T07:23:04.312Z,79.60
2018-08-08T07:25:40.798Z,81.00
2018-08-08T07:28:17.504Z,82.10
2018-08-08T07:30:58.068Z,81.80
2018-08-08T07:33:37.837Z,80.60
2018-08-08T07:36:13.507Z,79.70
2018-08-08T07:38:49.931Z,80.90
2018-08-08T07:41:26.241Z,79.00
2018-08-08T07:44:02.669Z,76.60
2018-08-08T07:49:24.334Z,77.10
2018-08-08T07:52:08.485Z,77.10
2018-08-08T07:54:45.684Z,76.90
2018-08-08T07:57:30.105Z,78.50
2018-08-08T08:00:12.034Z,77.70
2018-08-08T08:02:50.125Z,78.50
2018-08-08T08:05:29.440Z,74.00
2018-08-08T08:08:10.368Z,74.30
2018-08-08T08:10:55.543Z,73.90
2018-08-08T08:13:37.066Z,73.70
2018-08-08T08:16:14.914Z,75.10
2018-08-08T08:18:53.683Z,75.80
2018-08-08T08:21:37.880Z,77.30
2018-08-08T08:24:19.042Z,75.80
2018-08-08T08:26:54.838Z,73.80
2018-08-08T08:29:31.376Z,73.80
2018-08-08T08:32:08.333Z,74.90
2018-08-08T08:34:48.129Z,72.60
2018-08-08T08:37:25.535Z,72.80
2018-08-08T08:40:04.326Z,71.10
2018-08-08T08:42:40.822Z,67.70
2018-08-08T08:45:23.241Z,69.70
2018-08-08T08:48:03.379Z,70.90
2018-08-08T08:50:43.876Z,71.40
2018-08-08T08:53:19.693Z,71.30
2018-08-08T08:56:02.092Z,72.20
2018-08-08T08:58:39.247Z,72.50
2018-08-08T09:01:13.911Z,71.50
2018-08-08T09:06:35.583Z,72.00
2018-08-08T09:09:19.183Z,69.70
2018-08-08T09:11:56.920Z,72.10
2018-08-08T09:14:37.753Z,69.70
2018-08-08T09:17:17.364Z,68.90
2018-08-08T09:19:54.248Z,68.00
2018-08-08T09:22:38.678Z,67.60
2018-08-08T09:25:19.535Z,65.60
2018-08-08T09:27:57.003Z,65.50
2018-08-08T09:30:37.508Z,64.90
2018-08-08T09:33:17.041Z,65.90
2018-08-08T09:36:00.065Z,69.00
2018-08-08T09:38:37.004Z,66.50
2018-08-08T09:41:13.284Z,67.30
2018-08-08T09:43:51.294Z,65.10
2018-08-08T09:46:28.946Z,63.20
2018-08-08T09:49:06.912Z,63.70
2018-08-08T09:51:45.627Z,62.70
2018-08-08T09:54:29.741Z,62.20
2018-08-08T09:57:06.761Z,63.50
2018-08-08T09:59:41.154Z,60.80
2018-08-08T10:02:19.401Z,61.70
2018-08-08T10:05:00.492Z,58.90
2018-08-08T10:07:40.838Z,58.00
2018-08-08T10:10:19.292Z,61.50
2018-08-08T10:13:04.658Z,59.30
2018-08-08T10:15:52.183Z,58.50
2018-08-08T10:18:31.050Z,58.20
2018-08-08T10:21:09.660Z,56.60
2018-08-08T10:23:47.184Z,56.00
2018-08-08T10:26:23.618Z,58.70
2018-08-08T10:28:57.168Z,57.60
2018-08-08T10:31:34.879Z,55.60
2018-08-08T10:34:12.813Z,57.30
2018-08-08T10:36:53.138Z,55.30
2018-08-08T10:39:31.475Z,56.70
2018-08-08T10:42:12.740Z,57.00
2018-08-08T10:44:49.734Z,56.40
2018-08-08T10:47:32.900Z,57.60
2018-08-08T10:50:10.684Z,56.40
2018-08-08T10:52:49.680Z,57.60
2018-08-08T10:55:30.565Z,53.20
2018-08-08T10:58:04.668Z,53.40
2018-08-08T11:00:51.643Z,55.10
2018-08-08T11:03:28.703Z,55.20
2018-08-08T11:06:04.236Z,55.60
2018-08-08T11:08:42.735Z,56.80
2018-08-08T11:14:10.770Z,56.30
2018-08-08T11:16:47.415Z,55.90
2018-08-08T11:19:23.313Z,54.80
2018-08-08T11:22:05.023Z,56.90
2018-08-08T11:24:46.980Z,55.90
2018-08-08T11:27:26.634Z,55.00
2018-08-08T11:30:09.920Z,58.20
2018-08-08T11:32:49.265Z,54.90
2018-08-08T11:35:29.030Z,57.50
2018-08-08T11:38:07.058Z,54.00
2018-08-08T11:40:46.344Z,53.90
2018-08-08T11:43:24.913Z,56.30
2018-08-08T11:46:02.770Z,54.60
2018-08-08T11:48:43.164Z,54.50
2018-08-08T11:51:19.040Z,55.90
2018-08-08T11:53:59.856Z,56.20
2018-08-08T11:56:38.762Z,56.90
2018-08-08T11:59:16.880Z,56.20
2018-08-08T12:01:51.093Z,55.80
2018-08-08T12:04:31.145Z,53.00
2018-08-08T12:07:08.751Z,54.10
2018-08-08T12:09:43.364Z,54.50
2018-08-08T12:12:27.439Z,55.00
2018-08-08T12:15:02.706Z,55.40
2018-08-08T12:17:39.687Z,54.60
2018-08-08T12:20:13.669Z,55.50
2018-08-08T12:22:51.533Z,53.90
2018-08-08T12:25:29.839Z,54.90
2018-08-08T12:28:18.273Z,52.60
2018-08-08T12:30:54.244Z,53.00
2018-08-08T12:33:31.409Z,52.80
2018-08-08T12:36:07.405Z,54.60
2018-08-08T12:38:50.261Z,52.70
2018-08-08T12:41:30.107Z,51.70
2018-08-08T12:46:50.474Z,54.20
2018-08-08T12:49:32.160Z,50.90
2018-08-08T12:52:07.526Z,49.80
2018-08-08T12:54:48.777Z,52.00
2018-08-08T12:57:24.068Z,51.50
2018-08-08T13:00:06.716Z,52.30
2018-08-08T13:02:46.811Z,51.30
2018-08-08T13:05:31.146Z,51.60
2018-08-08T13:08:07.709Z,52.90
2018-08-08T13:10:43.578Z,54.40
2018-08-08T13:13:28.105Z,51.20
2018-08-08T13:16:04.184Z,51.80
2018-08-08T13:18:41.658Z,50.30
2018-08-08T13:21:21.934Z,51.30
2018-08-08T13:23:59.350Z,50.60
2018-08-08T13:26:34.639Z,51.90
2018-08-08T13:29:09.605Z,53.60
2018-08-08T13:31:46.893Z,50.60
2018-08-08T13:34:19.685Z,50.80
2018-08-08T13:36:51.572Z,51.30
2018-08-08T13:39:31.211Z,49.90
2018-08-08T13:42:11.187Z,50.20
2018-08-08T13:44:49.530Z,50.70
2018-08-08T13:47:29.557Z,50.40
2018-08-08T13:50:06.376Z,50.90
2018-08-08T13:52:45.913Z,50.80
2018-08-08T13:55:26.422Z,49.40
2018-08-08T13:58:07.143Z,50.70
2018-08-08T14:00:46.337Z,51.70
2018-08-08T14:03:20.895Z,51.10
2018-08-08T14:05:56.255Z,50.80
2018-08-08T14:08:39.442Z,51.50
2018-08-08T14:11:21.430Z,50.60
2018-08-08T14:14:00.106Z,51.40
2018-08-08T14:16:44.279Z,50.70
2018-08-08T14:19:17.050Z,49.90
2018-08-08T14:21:57.705Z,48.20
2018-08-08T14:24:42.751Z,48.20
2018-08-08T14:27:19.593Z,49.50
2018-08-08T14:29:54.986Z,49.80
2018-08-08T14:32:28.660Z,51.60
2018-08-08T14:35:04.732Z,50.50
2018-08-08T14:37:38.658Z,49.80
2018-08-08T14:40:12.191Z,50.30
2018-08-08T14:42:48.143Z,50.00
2018-08-08T14:45:24.496Z,49.90
2018-08-08T14:47:58.767Z,50.50
2018-08-08T14:50:36.676Z,49.90
2018-08-08T14:53:12.830Z,51.10
2018-08-08T14:55:52.121Z,51.90
2018-08-08T14:58:30.761Z,51.30
2018-08-08T15:01:06.642Z,51.70
2018-08-08T15:03:50.042Z,52.00
2018-08-08T15:06:25.953Z,51.80
2018-08-08T15:09:01.527Z,52.00
2018-08-08T15:11:40.757Z,51.80
2018-08-08T15:14:19.478Z,51.60
2018-08-08T15:16:54.515Z,52.20
2018-08-08T15:19:30.887Z,53.70
2018-08-08T15:22:07.563Z,53.70
2018-08-08T15:24:44.574Z,52.90
2018-08-08T15:27:19.185Z,51.80
2018-08-08T15:29:59.426Z,51.70
2018-08-08T15:32:38.694Z,53.50
2018-08-08T15:35:21.058Z,54.90
2018-08-08T15:37:52.431Z,53.50
2018-08-08T15:40:30.600Z,51.90
2018-08-08T15:43:08.795Z,52.70
2018-08-08T15:45:49.926Z,53.40
2018-08-08T15:48:25.552Z,52.60
2018-08-08T15:50:59.403Z,52.00
2018-08-08T15:53:40.211Z,53.10
2018-08-08T15:59:09.244Z,53.50
2018-08-08T16:01:49.975Z,53.90
2018-08-08T16:04:23.003Z,53.80
2018-08-08T16:07:02.540Z,55.20
2018-08-08T16:09:43.551Z,55.20
2018-08-08T16:12:24.980Z,55.30
2018-08-08T16:17:48.807Z,56.20
2018-08-08T16:20:23.542Z,55.70
2018-08-08T16:22:59.420Z,55.70
2018-08-08T16:25:36.512Z,55.10
2018-08-08T16:28:17.444Z,55.80
2018-08-08T16:30:59.118Z,56.10
2018-08-08T16:33:40.293Z,55.40
2018-08-08T16:36:16.393Z,55.80
2018-08-08T16:38:52.848Z,56.10
2018-08-08T16:41:30.711Z,55.70
2018-08-08T16:44:06.328Z,56.70
2018-08-08T16:46:41.702Z,56.30
2018-08-08T16:51:59.802Z,58.90
2018-08-08T16:54:34.533Z,57.80
2018-08-08T16:57:14.780Z,58.60
2018-08-08T16:59:56.952Z,59.20
2018-08-08T17:02:34.403Z,58.70
2018-08-08T17:05:08.834Z,59.10
2018-08-08T17:07:45.326Z,59.20
2018-08-08T17:10:27.345Z,59.80
2018-08-08T17:13:07.331Z,60.60
2018-08-08T17:15:42.075Z,62.10
2018-08-08T17:18:22.544Z,63.90
2018-08-08T17:21:00.310Z,64.00
2018-08-08T17:23:36.313Z,64.60
2018-08-08T17:26:08.595Z,64.80
2018-08-08T17:28:45.717Z,66.00
2018-08-08T17:31:21.472Z,65.80
2018-08-08T17:33:58.038Z,65.10
2018-08-08T17:36:38.444Z,66.30
2018-08-08T17:39:15.238Z,67.80
2018-08-08T17:41:52.846Z,67.80
2018-08-08T17:44:38.043Z,67.50
2018-08-08T17:47:15.280Z,67.20
2018-08-08T17:50:00.143Z,66.90
2018-08-08T17:52:37.329Z,66.70
2018-08-08T17:55:22.858Z,66.80
2018-08-08T17:58:03.283Z,67.90
2018-08-08T18:00:40.061Z,67.60
2018-08-08T18:03:17.829Z,68.60
2018-08-08T18:05:57.174Z,69.60
2018-08-08T18:08:35.623Z,70.10
2018-08-08T18:11:24.381Z,69.10
2018-08-08T18:13:59.775Z,69.80
2018-08-08T18:16:38.065Z,70.60
2018-08-08T18:19:14.874Z,71.10
2018-08-08T18:21:56.235Z,71.70
2018-08-08T18:24:40.732Z,72.00
2018-08-08T18:27:18.024Z,70.90
2018-08-08T18:29:59.931Z,73.30
2018-08-08T18:32:36.395Z,73.20
2018-08-08T18:35:11.751Z,74.80
2018-08-08T18:37:46.571Z,74.20
2018-08-08T18:40:24.755Z,75.30
2018-08-08T18:43:03.942Z,74.90
2018-08-08T18:45:39.569Z,75.80
2018-08-08T18:51:03.855Z,75.30
2018-08-08T18:53:42.856Z,75.20
2018-08-08T18:56:20.335Z,75.40
2018-08-08T18:59:05.616Z,76.80
2018-08-08T19:01:44.435Z,78.10
2018-08-08T19:04:26.404Z,80.70
2018-08-08T19:07:03.768Z,82.50
2018-08-08T19:09:36.528Z,81.90
2018-08-08T19:12:13.564Z,67.10
2018-08-08T19:14:54.411Z,60.80
2018-08-08T19:17:33.505Z,58.70
2018-08-08T19:20:14.954Z,56.30
2018-08-08T19:22:47.135Z,56.20
2018-08-08T19:25:28.023Z,55.80
2018-08-08T19:28:05.210Z,55.80
2018-08-08T19:30:43.533Z,55.40
2018-08-08T19:33:23.880Z,56.90
2018-08-08T19:38:45.195Z,67.20
2018-08-08T19:41:20.430Z,70.10
2018-08-08T19:43:58.136Z,73.20
2018-08-08T19:46:37.009Z,71.20
2018-08-08T19:49:15.544Z,70.90
2018-08-08T19:51:56.010Z,71.00
2018-08-08T19:54:37.277Z,71.10
2018-08-08T19:57:21.939Z,74.30
2018-08-08T20:02:39.809Z,76.60
2018-08-08T20:05:19.387Z,78.90
2018-08-08T20:07:55.309Z,79.80
2018-08-08T20:10:29.731Z,79.20
2018-08-08T20:13:03.946Z,82.00
2018-08-08T20:15:39.813Z,83.30
2018-08-08T20:18:19.558Z,83.20
2018-08-08T20:20:55.876Z,83.60
2018-08-08T20:23:37.208Z,82.80
2018-08-08T20:26:16.596Z,82.50
2018-08-08T20:28:55.869Z,81.10
2018-08-08T20:31:31.433Z,79.50
2018-08-08T20:34:08.298Z,80.70
2018-08-08T20:36:50.026Z,81.60
2018-08-08T20:39:26.817Z,81.50
2018-08-08T20:42:05.489Z,80.80
2018-08-08T20:44:42.125Z,82.10
2018-08-08T20:47:26.720Z,82.70
2018-08-08T20:50:05.547Z,83.10
2018-08-08T20:52:41.506Z,81.70
2018-08-08T20:55:19.085Z,81.40
2018-08-08T20:57:56.997Z,80.50
2018-08-08T21:00:34.930Z,80.10
2018-08-08T21:06:00.074Z,80.50
2018-08-08T21:08:36.610Z,81.00
2018-08-08T21:11:10.567Z,81.20
2018-08-08T21:14:02.434Z,81.50
2018-08-08T21:16:39.568Z,81.20
2018-08-08T21:19:17.655Z,81.00
2018-08-08T21:22:00.413Z,81.00
2018-08-08T21:24:37.750Z,81.10
2018-08-08T21:27:20.428Z,82.00
2018-08-08T21:30:01.646Z,83.00
2018-08-08T21:32:41.081Z,82.00
2018-08-08T21:35:21.080Z,81.40
2018-08-08T21:37:54.846Z,81.40
2018-08-08T21:40:34.433Z,79.60
2018-08-08T21:43:20.360Z,79.20
2018-08-08T21:45:56.429Z,79.80
2018-08-08T21:48:30.625Z,79.60
2018-08-08T21:51:09.514Z,80.10
2018-08-08T21:53:52.823Z,80.20
2018-08-08T21:58:41.582Z,80.40
2018-08-08T22:06:15.248Z,82.80
2018-08-08T22:08:57.580Z,82.10
2018-08-08T22:11:44.997Z,82.90
2018-08-08T22:14:28.448Z,82.50
2018-08-08T22:19:53.023Z,82.00
2018-08-08T22:22:34.777Z,82.50
2018-08-08T22:25:12.726Z,82.90
2018-08-08T22:27:53.215Z,83.00
2018-08-08T22:30:29.295Z,82.50
2018-08-08T22:33:05.860Z,83.20
2018-08-08T22:38:25.725Z,84.00
2018-08-08T22:41:01.154Z,83.10
2018-08-08T22:43:36.991Z,84.40
2018-08-08T22:46:13.846Z,84.90
2018-08-08T22:48:50.880Z,85.20
2018-08-08T22:51:25.304Z,84.50
2018-08-08T22:54:04.711Z,84.30
2018-08-08T22:56:48.128Z,84.50
2018-08-08T22:59:31.866Z,84.20
2018-08-08T23:02:10.187Z,83.80
2018-08-08T23:04:48.046Z,84.30
2018-08-08T23:07:23.812Z,84.70
2018-08-08T23:09:59.914Z,84.70
2018-08-08T23:12:35.156Z,84.60
2018-08-08T23:15:14.375Z,83.80
2018-08-08T23:17:48.306Z,84.80
2018-08-08T23:20:27.020Z,84.40
2018-08-08T23:23:09.764Z,84.10
2018-08-08T23:25:46.957Z,85.10
2018-08-08T23:28:20.222Z,85.30
2018-08-08T23:31:03.436Z,84.30
2018-08-08T23:33:42.877Z,84.30
2018-08-08T23:36:22.617Z,84.10
2018-08-08T23:39:04.210Z,84.50
2018-08-08T23:41:41.672Z,83.70
2018-08-08T23:44:20.205Z,84.60
2018-08-08T23:46:58.875Z,84.60
2018-08-08T23:49:36.856Z,85.00
2018-08-08T23:52:12.822Z,84.70
2018-08-08T23:54:49.267Z,84.00
2018-08-08T23:57:26.390Z,83.80
